Desk Aeronautico è consultabile gratuitamente, la pubblicità è l'unico modo per mantenere il sito online. Cercheremo di renderla il meno invasiva possibile, disattiva AdBlock!

Ultimi METAR emessi

Il METAR (Aerodrome routine meteorological report) è un messaggio codificato che descrive le condizioni meteorologiche osservate da una stazione meteo. I METAR sono reperibili presso gli ARO competenti. Scopri come leggere i METAR dalla nostra guida.

La lista degli ultimi METAR emessi da stazioni meteorologiche italiane sono elencati a seguire a puro scopo informativo. L’elenco degli indicatori di località ICAO è disponibile qui.


METAR LIBA 052355Z 28004KT 1500 BR BKN010 08/06 Q1025 RMK BKN VIS MIN 1500 WIND THR11 28004KT WIND THR29 /////KT AMB=
METAR LIBC 051850Z 00000KT 8000 SCT040 12/10 Q1024=
METAR LIBD 052350Z 22004KT 8000 FEW015 BKN022 11/10 Q1025=
METAR LIBE 052355Z 11005KT 0000 FG VV/// 07/06 Q1023 RMK MON INVIS VAL INVIS VIS MIN 0000=
METAR LIBF 051450Z 31003KT 9000 OVC018 10/08 Q1025=
METAR LIBG 051850Z 08003KT 9999 SCT045 13/11 Q1025=
METAR LIBH 051755Z 30005KT 5000 BR BKN030 12/10 Q1023 RMK OVC OVC080 QUK / QUL / VIS MAR 5 KM VIS MIN 5000=
METAR LIBN 052355Z 09006KT 8000 SCT025 13/12 Q1024 RMK BKN BKN080 VIS MIN 8000 WIND THR14 09005KT WIND THR32 09006KT BLU=
METAR LIBP 052350Z AUTO 22004KT 200V260 9999 OVC022/// 08/04 Q1026=
METAR LIBQ 052355Z 15009KT 9999 -RA SCT005 BKN030 07/05 Q1023 RMK BKN MON LIB VAL NIL VIS MIN 9999=
METAR LIBR 052150Z 13003KT 100V180 9999 BKN015 15/12 Q1025=
METAR LIBS 052355Z 00000KT 0800 FG VV/// 05/05 Q1026 RMK MON INVIS NC VIS MIN 0800=
METAR LIBT 051755Z 22003KT 9999 FEW026 11/07 Q1025 RMK BKN BKN080 QUK / QUL / VIS MAR 25 KM VIS MIN 9999=
METAR LIBU 051755Z 12002KT 4000 BR OVC016 05/03 Q1023 RMK OVC MON INC ABB SLW VAL FOSCHIA VIS MIN 4000=
METAR LIBV 052355Z 36003KT 0600 R32L//// R14R//// FG BKN002 SCT005 10/10 Q1024 RMK OVC VIS MIN 0600 WIND THR32 36003KT WIND THR14 36003KT RED=
METAR COR LIBW 051755Z 05012KT 9999 TS SCT005 SCT015 SCT020CB 11/09 Q1021 RETS RMK OVC QUK / QUL / VIS MAR 15 KM MON INC VAL NIL VIS MIN 9999=
METAR LIBY 051555Z 08010KT 4000 -RA BKN020 14/12 Q1023 RMK OVC BKN060 QUK / QUL / VIS MAR 4 KM VIS MIN 4000=
METAR LICA 052350Z 05010KT 9999 SCT020 14/13 Q1023=
METAR LICB 052350Z AUTO VRB02KT 8000 BKN030/// 13/11 Q1022=
METAR LICC 052350Z 27006KT 9999 BKN030 14/13 Q1022=
METAR LICD 052350Z AUTO 27006KT 9999 NCD 16/13 Q1022=
METAR LICE 051755Z 17005KT 0000 FG VV000 10/10 Q1020 RMK MON INVIS NC VAL INVIS NC VIS MIN 0000=
METAR LICF 052055Z 32001KT 6000 -RA BKN015 15/13 Q1022 RMK BKN BKN080 BKN200 QUK / QUL / VIS MAR 6 KM MON INVIS NC VIS MIN 6000=
METAR LICG 051850Z 15003KT 9999 FEW025 11/11 Q1022=
METAR LICJ 052350Z 19003KT 140V220 9999 FEW030 13/11 Q1022=
METAR LICL 051755Z 06007KT 9999 FEW040 17/14 Q1019 RMK BKN BKN090 QUK / QUL / VIS MAR 10 KM VIS MIN 9999=
METAR LICO 051755Z 05005KT 9000 SCT012 SCT015 17/15 Q1020 RMK OVC BKN060 QUK / QUL / VIS MAR 9 KM VIS MIN 9000=
METAR LICR 052250Z 35004KT 320V030 9999 -RA SCT040 15/14 Q1022 RMK VIS MIN 9999=
METAR LICT 052355Z 15002KT 9999 FEW025 11/09 Q1022 RMK SCT SCT080 VIS MIN 9999 WIND THR13 12002KT BLU=
METAR LICU 051755Z 04003KT 360V090 9999 OVC050 16/14 Q1023 RMK OVC QUK 1 QUL 1 SW VIS MAR 15 KM VIS MIN 9999=
METAR LICX 051455Z VRB02KT 9999 VCSH FEW005CB SCT007 BKN010 12/10 Q1020 RMK BKN MON GEN INC NC VAL NIL NC VIS MIN 9999NE=
METAR LICZ 052355Z 29005KT 7000 SCT020 BKN060 12/12 Q1022 RMK BKN VIS MIN 7000 WIND THR28 29006KT WIND THR10 /////KT A3020 WHT=
METAR LIEA 052350Z 09003KT 9999 FEW025 13/12 Q1022=
METAR LIEB 052355Z 31012KT CAVOK 13/10 Q1021 RMK SKC QUK / QUL / VIS MAR 20 KM MON INVIS VIS MIN 9999=
METAR LIEC 052355Z 21003KT 9999 FEW020 15/12 Q1021 RMK BKN SCT070 BKN200 QUK / QUL / VIS MAR 18 KM VIS MIN 9999=
METAR LIED 052355Z 03002KT 9999 SCT005 08/06 Q1022 RMK SCT VIS MIN 9999 WIND THR35 01002KT WIND THR17 /////KT BLU=
METAR LIEE 052350Z 32005KT 0800 R32/0750U FG NSC 09/09 Q1022=
METAR LIEF 051755Z 13004KT 9999 SCT025 13/12 Q1020 RMK SCT QUK / QUL / VIS MAR 20 KM VIS MIN 9999=
METAR LIEH 052355Z 16012KT 9999 BKN006 14/12 Q1022 RMK BKN QUK / QUL / VIS MAR 15 KM VIS MIN 9999=
METAR LIEL 051455Z 25003KT 9999 FEW015 18/11 Q1019 RMK BKN VIS MAR 15 KM MON LIB VIS MIN 9999=
METAR LIEO 052350Z VRB02KT 9999 SCT030 13/12 Q1022=
METAR LIEP 051655Z /////KT 9999 FEW006 SCT018 10/10 Q1020 RMK BKN VIS MIN 8000=
METAR LIMC 052350Z 02004KT 6000 NSC M02/M02 Q1026 NOSIG=
METAR LIME 052350Z 01005KT CAVOK 01/M01 Q1026 NOSIG=
METAR LIMF 052350Z 30004KT CAVOK 01/M01 Q1026=
METAR LIMG 051650Z 11008KT 090V160 9999 SCT050 13/M08 Q1022=
METAR LIMH 052355Z 20005KT CAVOK M05/M25 Q1024 RMK SKC MON LIB VAL NIL VIS MIN 9999=
METAR LIMJ 052350Z 03007KT 360V070 9999 BKN055 09/M00 Q1024 RMK VIS MIN 9999=
METAR LIMK 052355Z 00000KT CAVOK 02/M05 Q1024 RMK FEW FEW200 VAL NIL VIS MIN 9999=
METAR LIML 052350Z 17001KT 2000 R36/0300N BCFG VV/// 00/M00 Q1027 NOSIG=
METAR LIMN 051755Z 00000KT 5000 BR NSC 01/00 Q1026 RMK FEW FEW200 VIS MIN 5000 WHT=
METAR LIMP 052150Z 25003KT 6000 NSC 01/01 Q1027=
METAR LIMS 051755Z /////KT 5000 BR NSC 02/02 Q1025 RMK SKC VIS MIN 5000 WIND THR30 24004KT WHT=
METAR LIMU 052355Z 02007KT 9999 SCT025 11/M05 Q1023 RMK BKN SCT080 QUK / QUL / VIS MAR 25 KM VIS MIN 9999=
METAR LIMV 051755Z /////KT CAVOK 01/00 Q1023 RMK BKN SCT080 MON LIB VAL NIL VIS MIN 9999=
METAR LIMY 051755Z /////KT CAVOK 03/01 Q1025 RMK BKN BKN070 VAL FOSCHIA VIS MIN 9999=
METAR LIMZ 051950Z 24002KT 9999 SCT060 02/02 Q1026=
METAR LIPA 052055Z 02004KT CAVOK 01/M00 Q1026 RMK SKC VIS MIN 9999 WIND THR05 /////KT WIND THR23 /////KT A3030 BLU=
METAR LIPB 052150Z VRB02KT CAVOK M03/M04 Q1027 RMK MON LIB=
METAR LIPC 052355Z 26004KT CAVOK 02/01 Q1027 RMK SKC VIS MIN 9999 WIND THR11 /////KT WIND THR29 26004KT BLU=
METAR LIPE 052350Z 22003KT 6000 NSC 01/00 Q1027=
METAR LIPF 051755Z /////KT 7000 NSC 03/M00 Q1026 RMK SKC VIS MIN 7000=
METAR LIPH 052350Z AUTO 25001KT 9999 BKN042/// 03/01 Q1026=
METAR LIPI 051455Z 21002KT CAVOK 09/M02 Q1025 RMK FEW FEW200 VIS MIN 9999 WIND THR06 24002KT WIND THR24 24002KT BLU=
METAR LIPK 051650Z VRB02KT CAVOK 03/M04 Q1026=
METAR LIPL 052355Z 03002KT 4000 BR NSC 01/00 Q1026 RMK SKC VIS MIN 4000 WIND THR31 /////KT WIND THR13 02001KT GRN=
METAR LIPO 052350Z 35003KT CAVOK 00/00 Q1026=
METAR LIPQ 052350Z AUTO 36003KT 9999 OVC045/// 04/03 Q1026=
METAR LIPR 052350Z AUTO 20004KT 5000 BR NCD 02/00 Q1026=
METAR LIPS 052355Z /////KT 9999 FEW040 02/02 Q1026 RMK FEW VIS MIN 9999 WIND THR26 00000KT WIND THR08 00000KT BLU=
METAR LIPU 051450Z VRB02KT CAVOK 09/M03 Q1026=
METAR LIPX 052350Z 33002KT CAVOK M00/M01 Q1026=
METAR LIPY 052250Z 21003KT 3000 BR NSC 04/04 Q1026=
METAR LIPZ 052350Z 03003KT 9999 FEW039 BKN041 04/M00 Q1026 NOSIG=
METAR LIQB 051855Z 00000KT CAVOK 03/03 Q1023 RMK SCT SCT080 VIS MIN 9999=
METAR LIQC 052255Z 06008KT 9999 SCT020 BKN022 14/11 Q1023 RMK OVC QUK / QUL / VIS MAR 10 KM VIS MIN 9999=
METAR LIQJ 052355Z AUTO 10005KT //// 15/08 Q1023=
METAR LIQK 052355Z 00000KT 9999 FEW030 SCT070 16/14 Q1022 RMK OVC QUK / QUL / VIS MAR 20 KM VIS MIN 9999=
METAR LIQN 051550Z VRB02KT CAVOK 09/03 Q1022=
METAR LIQO 051755Z 10013KT 9999 SCT005 10/01 Q1021 RMK OVC SCT053 VAL NIL NC VIS MIN 9999=
METAR LIQR 051355Z 00000KT CAVOK 09/M04 Q1025 RMK BKN SCT070 BKN200 MON LIB NC VAL NIL NC VIS MIN 9999=
METAR LIQW 051455Z /////KT CAVOK 11/02 Q1022 RMK BKN BKN070 VIS MIN 9999 WIND THR18 31004KT BLU=
METAR LIQZ 052255Z 12012KT 9999 BKN010 14/14 Q1022 RMK BKN QUK / QUL / VIS MAR 10 KM VIS MIN 9999=
METAR LIRA 052350Z 02004KT 9999 SCT030 08/05 Q1023=
METAR LIRB 052355Z AUTO 05006KT //// 09/04 Q1024=
METAR LIRE 052355Z 02008KT 9999 SCT070 11/09 Q1023 RMK SCT VIS MIN 9999 WIND THR13 04005KT WIND THR31 03006KT BLU=
METAR LIRF 052350Z 09007KT 9999 FEW050 09/05 Q1023 NOSIG=
METAR LIRG 051755Z 26003KT 9999 FEW040 09/06 Q1023 RMK BKN SCT070 MON NE LIB NC VIS MIN 9999 BLU=
METAR LIRH 051755Z 02006KT CAVOK 11/06 Q1023 RMK BKN BKN070 MON INVIS NC VIS MIN 9999 WIND THR16 /////KT BLU=
METAR LIRK 052355Z AUTO VRB04KT //// 04/01 Q1025=
METAR LIRL 051755Z 30003KT 9999 BKN060 12/09 Q1022 RMK BKN MON INVIS NC VIS MIN 9999 WIND THR12 28003KT WIND THR30 28003KT BLU=
METAR LIRM 052355Z 01003KT 9999 SCT030 SCT070 10/09 Q1023 RMK BKN VIS MIN 9999 WIND THR06 34005KT BLU=
METAR LIRN 052350Z 34004KT CAVOK 12/08 Q1023 NOSIG=
METAR LIRP 052345Z 13006KT 9999 FEW040 08/06 Q1024 NOSIG RMK BKN SCT090 VIS MIN 9999 WIND THR04 14006KT WIND THR22 VRB02KT BLU=
METAR LIRQ 052350Z 21003KT 9999 BKN080 07/05 Q1024=
METAR LIRS 052355Z 06005KT 9999 FEW018 BKN030 10/05 Q1023 RMK OVC VIS MIN 9999 WIND THR03 07006KT WIND THR21 09006KT BLU=
METAR LIRT 052155Z 14008KT 9999 SCT002 05/02 Q1023 RMK SCT MON INVIS VAL INVIS VIS MIN 9999=
METAR LIRU 051550Z 06004KT CAVOK 11/05 Q1023=
METAR LIRV 051755Z 06007KT CAVOK 08/03 Q1022 RMK BKN BKN070 MON E SE LIB NC VIS MIN 9999 WIND THR04 /////KT BLU=
METAR LIRX 051855Z 15010KT 9999 BKN005 BKN024 10/06 Q1022 RMK OVC VIS MIN 9999 VIS MAR 10 KM=
METAR LIRZ 052350Z AUTO 04003KT //// BKN097/// 06/04 Q1024=
METAR LIVD 051755Z ///01KT CAVOK M03/M05 Q1025 RMK SKC VIS MIN 9999=
METAR LIVE 052355Z 00000KT CAVOK M04/M08 Q1025 RMK SKC VIS MIN 9999=
METAR LIVF 052355Z 22004KT 9999 BKN035 04/03 Q1023 RMK BKN MON S W CLD CIME VAL NW FOSCHIA VIS MIN 9999=
METAR LIVM 052355Z AUTO 28004KT 240V320 //// 03/01 Q1027=
METAR LIVO 051755Z 00000KT CAVOK M02/M03 Q1022 RMK SKC VIS MIN 9999=
METAR LIVP 052355Z 19004KT CAVOK M02/M14 Q1021 RMK SKC MON LIB VAL NIL VIS MIN 9999=
METAR LIVR 052055Z 00000KT CAVOK M02/M15 Q1022 RMK SKC MON LIB VIS MIN 9999=
METAR LIVT 051755Z ///02KT CAVOK 09/04 Q1025 RMK SCT SCT060 QUK / QUL / VIS MAR 20 KM VIS MIN 9999=

Informazioni elaborate dal Servizio Meteorologico dell’Aeronautica Militare e pubblicate sul sito www.meteoam.it